createdAt,value
2023-04-14T00:01:27.155Z,13.55
2023-04-14T00:03:55.238Z,13.52
2023-04-14T00:06:24.635Z,13.50
2023-04-14T00:08:52.749Z,13.46
2023-04-14T00:11:20.675Z,13.43
2023-04-14T00:13:48.575Z,13.42
2023-04-14T00:16:16.714Z,13.38
2023-04-14T00:18:44.649Z,13.38
2023-04-14T00:21:13.371Z,13.35
2023-04-14T00:23:42.761Z,13.35
2023-04-14T00:26:10.689Z,13.33
2023-04-14T00:28:38.676Z,13.36
2023-04-14T00:31:07.134Z,13.39
2023-04-14T00:33:35.049Z,13.45
2023-04-14T00:36:02.960Z,13.48
2023-04-14T00:38:31.525Z,13.50
2023-04-14T00:41:00.822Z,13.51
2023-04-14T00:43:28.760Z,13.53
2023-04-14T00:45:56.703Z,13.54
2023-04-14T00:48:24.657Z,13.53
2023-04-14T00:50:52.699Z,13.49
2023-04-14T00:53:21.185Z,13.48
2023-04-14T00:55:49.099Z,13.44
2023-04-14T00:58:18.325Z,13.36
2023-04-14T01:00:46.325Z,13.28
2023-04-14T01:03:14.350Z,13.20
2023-04-14T01:05:42.438Z,13.06
2023-04-14T01:08:10.620Z,13.07
2023-04-14T01:10:42.210Z,12.94
2023-04-14T01:13:21.320Z,12.99
2023-04-14T01:15:51.885Z,12.96
2023-04-14T01:18:23.177Z,12.98
2023-04-14T01:20:51.727Z,12.96
2023-04-14T01:23:23.775Z,12.96
2023-04-14T01:26:29.763Z,12.90
2023-04-14T01:29:08.781Z,12.88
2023-04-14T01:31:39.496Z,12.89
2023-04-14T01:34:10.803Z,12.84
2023-04-14T01:36:41.493Z,12.81
2023-04-14T01:39:10.034Z,12.81
2023-04-14T01:41:38.814Z,12.77
2023-04-14T01:44:06.881Z,12.74
2023-04-14T01:46:35.318Z,12.73
2023-04-14T01:49:04.707Z,12.75
2023-04-14T01:51:32.853Z,12.75
2023-04-14T01:54:00.765Z,12.78
2023-04-14T01:56:28.656Z,12.81
2023-04-14T01:58:56.640Z,12.77
2023-04-14T02:01:24.911Z,12.89
2023-04-14T02:03:53.264Z,12.94
2023-04-14T02:06:22.751Z,12.99
2023-04-14T02:08:51.020Z,12.98
2023-04-14T02:11:18.991Z,13.12
2023-04-14T02:13:46.877Z,13.05
2023-04-14T02:16:15.247Z,13.08
2023-04-14T02:18:43.190Z,13.11
2023-04-14T02:21:11.075Z,13.11
2023-04-14T02:23:40.334Z,13.09
2023-04-14T02:26:11.102Z,13.07
2023-04-14T02:28:43.068Z,13.04
2023-04-14T02:31:11.432Z,13.00
2023-04-14T02:33:39.534Z,12.96
2023-04-14T02:36:10.573Z,12.94
2023-04-14T02:38:41.821Z,12.89
2023-04-14T02:41:14.862Z,12.83
2023-04-14T02:43:45.365Z,12.81
2023-04-14T02:46:13.384Z,12.76
2023-04-14T02:48:42.986Z,12.75
2023-04-14T02:51:11.441Z,12.75
2023-04-14T02:53:40.685Z,12.73
2023-04-14T02:56:08.727Z,12.73
2023-04-14T02:58:36.979Z,12.73
2023-04-14T03:01:05.042Z,12.71
2023-04-14T03:03:35.419Z,12.71
2023-04-14T03:06:03.704Z,12.70
2023-04-14T03:08:31.572Z,12.69
2023-04-14T03:11:00.923Z,12.67
2023-04-14T03:13:28.859Z,12.63
2023-04-14T03:15:56.775Z,12.60
2023-04-14T03:18:24.648Z,12.48
2023-04-14T03:20:55.920Z,12.47
2023-04-14T03:23:24.510Z,12.38
2023-04-14T03:25:52.356Z,12.37
2023-04-14T03:28:23.574Z,12.36
2023-04-14T03:30:52.686Z,12.31
2023-04-14T03:33:23.405Z,12.28
2023-04-14T03:35:51.638Z,12.26
2023-04-14T03:38:19.522Z,12.20
2023-04-14T03:40:48.481Z,12.21
2023-04-14T03:43:19.996Z,12.13
2023-04-14T03:45:50.178Z,12.11
2023-04-14T03:48:19.555Z,12.09
2023-04-14T03:50:49.893Z,12.06
2023-04-14T03:53:18.105Z,12.03
2023-04-14T03:55:46.659Z,12.02
2023-04-14T03:58:14.849Z,12.01
2023-04-14T04:00:42.985Z,12.03
2023-04-14T04:03:12.340Z,12.04
2023-04-14T04:05:40.999Z,12.05
2023-04-14T04:08:09.564Z,12.00
2023-04-14T04:10:37.501Z,11.99
2023-04-14T04:13:08.242Z,11.93
2023-04-14T04:15:36.226Z,11.97
2023-04-14T04:18:04.107Z,11.91
2023-04-14T04:20:33.398Z,11.75
2023-04-14T04:23:01.694Z,11.99
2023-04-14T04:25:29.576Z,12.01
2023-04-14T04:27:57.485Z,12.03
2023-04-14T04:30:25.389Z,12.03
2023-04-14T04:32:53.273Z,12.02
2023-04-14T04:35:21.362Z,12.01
2023-04-14T04:37:50.777Z,11.98
2023-04-14T04:40:18.781Z,11.96
2023-04-14T04:42:46.666Z,11.94
2023-04-14T04:45:14.542Z,11.92
2023-04-14T04:47:42.549Z,11.91
2023-04-14T04:50:10.687Z,11.90
2023-04-14T04:52:38.559Z,11.89
2023-04-14T04:55:08.849Z,11.88
2023-04-14T04:57:36.778Z,11.90
2023-04-14T05:00:05.424Z,11.89
2023-04-14T05:02:33.432Z,11.86
2023-04-14T05:05:01.422Z,11.84
2023-04-14T05:07:29.288Z,11.77
2023-04-14T05:09:57.244Z,11.71
2023-04-14T05:12:26.568Z,11.70
2023-04-14T05:14:54.432Z,11.65
2023-04-14T05:17:22.316Z,11.65
2023-04-14T05:19:50.531Z,11.63
2023-04-14T05:22:18.546Z,11.54
2023-04-14T05:24:50.531Z,11.65
2023-04-14T05:27:18.564Z,11.63
2023-04-14T05:29:47.846Z,11.63
2023-04-14T05:32:15.757Z,11.62
2023-04-14T05:34:43.637Z,11.62
2023-04-14T05:37:11.557Z,11.62
2023-04-14T05:39:39.435Z,11.59
2023-04-14T05:42:07.387Z,11.61
2023-04-14T05:44:35.598Z,11.62
2023-04-14T05:47:04.922Z,11.59
2023-04-14T05:49:32.904Z,11.58
2023-04-14T05:52:01.239Z,11.55
2023-04-14T05:54:29.154Z,11.62
2023-04-14T05:56:57.669Z,11.60
2023-04-14T05:59:25.671Z,11.59
2023-04-14T06:01:53.640Z,11.60
2023-04-14T06:04:23.156Z,11.65
2023-04-14T06:06:51.566Z,11.68
2023-04-14T06:09:19.500Z,11.62
2023-04-14T06:11:47.401Z,11.70
2023-04-14T06:14:15.457Z,11.73
2023-04-14T06:16:43.387Z,11.74
2023-04-14T06:19:11.327Z,11.76
2023-04-14T06:21:40.666Z,11.84
2023-04-14T06:24:09.273Z,11.82
2023-04-14T06:26:37.599Z,11.86
2023-04-14T06:29:07.547Z,11.84
2023-04-14T06:31:35.923Z,11.80
2023-04-14T06:34:04.343Z,11.82
2023-04-14T06:36:32.909Z,11.80
2023-04-14T06:39:02.605Z,11.76
2023-04-14T06:41:31.308Z,11.74
2023-04-14T06:43:59.207Z,11.76
2023-04-14T06:46:27.199Z,11.76
2023-04-14T06:48:55.139Z,11.75
2023-04-14T06:51:23.228Z,11.75
2023-04-14T06:53:51.518Z,11.75
2023-04-14T06:56:20.775Z,11.76
2023-04-14T06:58:48.715Z,11.74
2023-04-14T07:01:16.697Z,11.75
2023-04-14T07:03:47.152Z,11.74
2023-04-14T07:06:17.255Z,11.80
2023-04-14T07:08:46.695Z,11.79
2023-04-14T07:11:14.739Z,11.77
2023-04-14T07:13:44.079Z,11.82
2023-04-14T07:16:12.028Z,11.80
2023-04-14T07:18:39.916Z,11.78
2023-04-14T07:21:08.487Z,11.78
2023-04-14T07:23:36.366Z,11.78
2023-04-14T07:26:04.335Z,11.83
2023-04-14T07:28:32.542Z,11.83
2023-04-14T07:31:08.465Z,11.81
2023-04-14T07:33:36.605Z,11.83
2023-04-14T07:36:06.234Z,11.85
2023-04-14T07:38:34.173Z,11.85
2023-04-14T07:41:04.796Z,11.85
2023-04-14T07:43:35.212Z,11.91
2023-04-14T07:46:05.769Z,11.96
2023-04-14T07:48:33.967Z,11.95
2023-04-14T07:51:01.872Z,12.02
2023-04-14T07:53:29.804Z,11.96
2023-04-14T07:55:58.665Z,12.08
2023-04-14T07:58:29.075Z,12.13
2023-04-14T08:00:57.877Z,12.13
2023-04-14T08:03:27.372Z,12.15
2023-04-14T08:05:55.508Z,12.15
2023-04-14T08:08:23.646Z,12.14
2023-04-14T08:10:51.526Z,12.18
2023-04-14T08:13:20.007Z,12.18
2023-04-14T08:15:48.498Z,12.20
2023-04-14T08:18:16.365Z,12.22
2023-04-14T08:20:45.689Z,12.27
2023-04-14T08:23:13.608Z,12.30
2023-04-14T08:25:42.296Z,12.32
2023-04-14T08:28:10.286Z,12.40
2023-04-14T08:30:38.345Z,12.45
2023-04-14T08:33:06.296Z,12.54
2023-04-14T08:35:37.235Z,12.61
2023-04-14T08:38:10.817Z,12.70
2023-04-14T08:40:39.748Z,12.75
2023-04-14T08:43:07.771Z,12.71
2023-04-14T08:45:36.120Z,12.90
2023-04-14T08:48:04.987Z,12.96
2023-04-14T08:50:34.158Z,12.99
2023-04-14T08:53:02.962Z,13.09
2023-04-14T08:55:32.893Z,13.10
2023-04-14T08:58:02.113Z,13.14
2023-04-14T09:00:31.202Z,13.21
2023-04-14T09:02:59.316Z,13.28
2023-04-14T09:05:27.458Z,13.32
2023-04-14T09:07:55.446Z,13.29
2023-04-14T09:10:24.021Z,13.38
2023-04-14T09:12:53.587Z,13.40
2023-04-14T09:15:21.913Z,13.46
2023-04-14T09:17:50.150Z,13.51
2023-04-14T09:20:38.501Z,13.57
2023-04-14T09:23:09.429Z,13.63
2023-04-14T09:25:38.933Z,13.74
2023-04-14T09:28:08.249Z,13.74
2023-04-14T09:30:36.383Z,13.93
2023-04-14T09:33:06.312Z,14.07
2023-04-14T09:35:44.554Z,14.17
2023-04-14T09:38:12.480Z,14.25
2023-04-14T09:40:40.368Z,14.05
2023-04-14T09:43:12.922Z,14.38
2023-04-14T09:45:44.982Z,14.44
2023-04-14T09:48:16.391Z,14.44
2023-04-14T09:51:03.515Z,14.43
2023-04-14T09:53:32.124Z,14.56
2023-04-14T09:56:02.652Z,14.55
2023-04-14T09:58:32.793Z,14.55
2023-04-14T10:01:04.790Z,14.53
2023-04-14T10:03:34.749Z,14.53
2023-04-14T10:06:04.926Z,14.46
2023-04-14T10:08:37.749Z,14.55
2023-04-14T10:11:15.820Z,14.62
2023-04-14T10:13:45.366Z,14.72
2023-04-14T10:16:13.543Z,14.73
2023-04-14T10:18:41.505Z,14.82
2023-04-14T10:21:09.687Z,14.91
2023-04-14T10:23:38.414Z,14.99
2023-04-14T10:26:07.225Z,15.16
2023-04-14T10:28:36.052Z,15.26
2023-04-14T10:31:06.783Z,15.39
2023-04-14T10:33:34.746Z,15.49
2023-04-14T10:36:02.676Z,15.71
2023-04-14T10:38:42.321Z,15.95
2023-04-14T10:41:10.681Z,16.20
2023-04-14T10:43:38.736Z,16.36
2023-04-14T10:46:09.670Z,16.53
2023-04-14T10:48:38.742Z,16.71
2023-04-14T10:51:07.544Z,16.91
2023-04-14T10:53:37.824Z,17.11
2023-04-14T10:56:06.235Z,17.32
2023-04-14T10:58:37.815Z,17.47
2023-04-14T11:01:26.777Z,17.61
2023-04-14T11:03:56.317Z,17.68
2023-04-14T11:06:53.605Z,17.75
2023-04-14T11:09:25.667Z,17.63
2023-04-14T11:11:56.701Z,17.58
2023-04-14T11:14:32.885Z,17.64
2023-04-14T11:17:04.589Z,17.67
2023-04-14T11:19:33.309Z,17.71
2023-04-14T11:22:01.359Z,17.71
2023-04-14T11:24:29.443Z,17.76
2023-04-14T11:26:57.596Z,17.65
2023-04-14T11:29:25.526Z,17.64
2023-04-14T11:32:07.329Z,17.64
2023-04-14T11:34:35.510Z,17.69
2023-04-14T11:37:04.035Z,17.77
2023-04-14T11:39:32.229Z,17.89
2023-04-14T11:42:01.288Z,18.03
2023-04-14T11:44:29.484Z,18.16
2023-04-14T11:46:57.575Z,18.22
2023-04-14T11:49:36.688Z,18.22
2023-04-14T11:52:08.722Z,18.15
2023-04-14T11:54:38.035Z,18.14
2023-04-14T11:57:11.107Z,18.05
2023-04-14T11:59:43.585Z,17.97
2023-04-14T12:02:16.557Z,17.88
2023-04-14T12:04:46.881Z,17.84
2023-04-14T12:07:17.059Z,17.71
2023-04-14T12:09:47.457Z,17.60
2023-04-14T12:12:17.218Z,17.42
2023-04-14T12:14:45.706Z,17.41
2023-04-14T12:17:15.508Z,17.28
2023-04-14T12:19:43.904Z,17.20
2023-04-14T12:22:13.182Z,17.14
2023-04-14T12:24:42.005Z,17.21
2023-04-14T12:27:10.133Z,17.25
2023-04-14T12:29:38.172Z,17.38
2023-04-14T12:32:11.635Z,17.72
2023-04-14T12:34:39.672Z,17.96
2023-04-14T12:37:09.772Z,18.07
2023-04-14T12:39:52.677Z,18.00
2023-04-14T12:42:20.944Z,17.97
2023-04-14T12:44:55.974Z,17.89
2023-04-14T12:47:30.401Z,17.82
2023-04-14T12:49:58.579Z,17.73
2023-04-14T12:52:39.856Z,17.62
2023-04-14T12:55:19.723Z,17.59
2023-04-14T12:57:47.641Z,17.67
2023-04-14T13:00:16.145Z,17.71
2023-04-14T13:02:45.515Z,17.78
2023-04-14T13:05:15.149Z,17.83
2023-04-14T13:07:43.624Z,17.94
2023-04-14T13:10:13.269Z,17.97
2023-04-14T13:12:42.011Z,18.01
2023-04-14T13:16:09.236Z,18.07
2023-04-14T13:17:59.640Z,18.14
2023-04-14T13:20:30.581Z,18.30
2023-04-14T13:22:58.467Z,18.55
2023-04-14T13:25:27.866Z,18.71
2023-04-14T13:27:55.782Z,18.93
2023-04-14T13:30:23.757Z,19.02
2023-04-14T13:32:51.949Z,19.20
2023-04-14T13:35:19.954Z,19.39
2023-04-14T13:37:48.018Z,19.44
2023-04-14T13:40:16.098Z,19.46
2023-04-14T13:42:45.705Z,19.67
2023-04-14T13:45:13.831Z,19.89
2023-04-14T13:47:41.758Z,20.10
2023-04-14T13:50:10.719Z,20.31
2023-04-14T13:52:38.642Z,20.54
2023-04-14T13:55:07.192Z,20.69
2023-04-14T13:57:35.181Z,20.71
2023-04-14T14:00:07.234Z,20.62
2023-04-14T14:02:36.128Z,20.49
2023-04-14T14:05:04.225Z,20.11
2023-04-14T14:07:32.091Z,20.03
2023-04-14T14:10:00.156Z,19.87
2023-04-14T14:12:28.032Z,19.70
2023-04-14T14:14:55.927Z,19.57
2023-04-14T14:17:25.471Z,19.41
2023-04-14T14:19:53.806Z,19.20
2023-04-14T14:22:21.707Z,18.92
2023-04-14T14:24:49.606Z,18.48
2023-04-14T14:27:17.484Z,17.96
2023-04-14T14:29:45.392Z,17.41
2023-04-14T14:32:13.442Z,16.94
2023-04-14T14:34:43.911Z,16.55
2023-04-14T14:37:12.075Z,16.22
2023-04-14T14:39:40.048Z,15.97
2023-04-14T14:42:08.150Z,15.89
2023-04-14T14:44:38.550Z,15.81
2023-04-14T14:47:06.669Z,15.75
2023-04-14T14:49:34.656Z,15.73
2023-04-14T14:52:04.816Z,15.61
2023-04-14T14:54:32.634Z,15.71
2023-04-14T14:57:01.471Z,15.61
2023-04-14T14:59:29.761Z,15.58
2023-04-14T15:01:57.837Z,15.55
2023-04-14T15:04:25.931Z,15.52
2023-04-14T15:06:53.936Z,15.51
2023-04-14T15:09:23.218Z,15.62
2023-04-14T15:11:51.406Z,15.76
2023-04-14T15:14:19.320Z,15.90
2023-04-14T15:16:48.100Z,15.95
2023-04-14T15:19:16.582Z,15.97
2023-04-14T15:21:44.600Z,15.91
2023-04-14T15:24:12.528Z,15.80
2023-04-14T15:26:41.776Z,15.72
2023-04-14T15:29:09.679Z,15.69
2023-04-14T15:31:37.807Z,15.68
2023-04-14T15:34:06.925Z,15.79
2023-04-14T15:36:34.811Z,15.87
2023-04-14T15:39:02.720Z,15.92
2023-04-14T15:41:30.653Z,15.92
2023-04-14T15:44:00.238Z,15.98
2023-04-14T15:46:28.395Z,16.06
2023-04-14T15:48:56.377Z,16.09
2023-04-14T15:51:24.296Z,16.15
2023-04-14T15:53:52.829Z,16.24
2023-04-14T15:56:23.436Z,16.43
2023-04-14T15:58:51.672Z,16.94
2023-04-14T16:01:21.090Z,17.45
2023-04-14T16:03:51.194Z,17.75
2023-04-14T16:06:20.060Z,18.15
2023-04-14T16:08:47.958Z,18.72
2023-04-14T16:11:16.511Z,19.32
2023-04-14T16:13:45.739Z,19.97
2023-04-14T16:16:14.415Z,20.56
2023-04-14T16:18:43.864Z,20.81
2023-04-14T16:21:11.823Z,20.55
2023-04-14T16:23:39.789Z,20.25
2023-04-14T16:26:07.691Z,19.92
2023-04-14T16:28:35.875Z,19.66
2023-04-14T16:31:03.927Z,19.41
2023-04-14T16:33:32.704Z,19.10
2023-04-14T16:36:04.956Z,19.13
2023-04-14T16:38:32.950Z,19.41
2023-04-14T16:41:02.184Z,20.36
2023-04-14T16:43:30.226Z,21.33
2023-04-14T16:46:01.993Z,22.31
2023-04-14T16:48:30.705Z,22.99
2023-04-14T16:50:58.804Z,23.10
2023-04-14T16:53:29.753Z,23.29
2023-04-14T16:56:03.589Z,23.48
2023-04-14T16:58:31.604Z,23.69
2023-04-14T17:00:59.488Z,24.08
2023-04-14T17:03:27.727Z,24.17
2023-04-14T17:05:56.370Z,24.12
2023-04-14T17:08:24.379Z,24.07
2023-04-14T17:10:53.835Z,24.00
2023-04-14T17:13:22.407Z,23.79
2023-04-14T17:15:58.786Z,23.70
2023-04-14T17:18:33.918Z,23.51
2023-04-14T17:21:02.943Z,23.41
2023-04-14T17:23:30.877Z,23.46
2023-04-14T17:26:00.345Z,23.51
2023-04-14T17:28:28.824Z,23.48
2023-04-14T17:30:59.333Z,23.48
2023-04-14T17:33:27.642Z,23.39
2023-04-14T17:35:55.743Z,23.04
2023-04-14T17:38:24.279Z,22.45
2023-04-14T17:40:53.325Z,21.50
2023-04-14T17:43:23.104Z,20.65
2023-04-14T17:45:51.549Z,19.93
2023-04-14T17:48:19.722Z,19.20
2023-04-14T17:50:47.681Z,18.57
2023-04-14T17:53:16.388Z,18.35
2023-04-14T17:55:44.886Z,18.20
2023-04-14T17:58:12.800Z,17.78
2023-04-14T18:00:42.116Z,17.39
2023-04-14T18:03:10.091Z,16.99
2023-04-14T18:05:38.224Z,16.61
2023-04-14T18:08:06.776Z,16.32
2023-04-14T18:10:35.858Z,16.06
2023-04-14T18:13:03.716Z,15.84
2023-04-14T18:15:32.338Z,15.68
2023-04-14T18:18:01.813Z,15.60
2023-04-14T18:20:30.150Z,15.47
2023-04-14T18:23:02.177Z,15.38
2023-04-14T18:26:26.283Z,15.27
2023-04-14T18:28:18.385Z,15.14
2023-04-14T18:30:53.059Z,15.09
2023-04-14T18:33:22.542Z,15.03
2023-04-14T18:35:51.881Z,15.00
2023-04-14T18:38:19.964Z,14.92
2023-04-14T18:40:48.465Z,14.81
2023-04-14T18:43:16.414Z,14.75
2023-04-14T18:45:46.305Z,14.67
2023-04-14T18:48:14.340Z,14.61
2023-04-14T18:50:43.589Z,14.53
2023-04-14T18:53:11.765Z,14.47
2023-04-14T18:55:45.181Z,14.40
2023-04-14T18:58:14.107Z,14.33
2023-04-14T19:00:43.144Z,14.29
2023-04-14T19:03:11.480Z,14.10
2023-04-14T19:05:39.465Z,14.14
2023-04-14T19:08:09.064Z,14.09
2023-04-14T19:10:37.390Z,14.02
2023-04-14T19:13:05.807Z,13.98
2023-04-14T19:15:34.193Z,13.90
2023-04-14T19:18:03.691Z,13.87
2023-04-14T19:20:31.884Z,13.78
2023-04-14T19:22:59.800Z,13.75
2023-04-14T19:25:29.440Z,13.71
2023-04-14T19:28:01.186Z,13.65
2023-04-14T19:30:29.305Z,13.61
2023-04-14T19:32:57.761Z,13.57
2023-04-14T19:35:25.745Z,13.55
2023-04-14T19:37:55.836Z,13.49
2023-04-14T19:40:24.223Z,13.47
2023-04-14T19:42:55.244Z,13.43
2023-04-14T19:45:23.216Z,13.39
2023-04-14T19:47:51.658Z,13.38
2023-04-14T19:50:19.603Z,13.35
2023-04-14T19:52:49.829Z,13.36
2023-04-14T19:55:18.042Z,13.34
2023-04-14T19:57:47.046Z,13.30
2023-04-14T20:00:17.020Z,13.30
2023-04-14T20:02:45.123Z,13.23
2023-04-14T20:05:14.024Z,13.27
2023-04-14T20:07:41.908Z,13.22
2023-04-14T20:10:10.798Z,13.21
2023-04-14T20:12:38.972Z,13.13
2023-04-14T20:15:08.286Z,13.17
2023-04-14T20:17:37.702Z,13.15
2023-04-14T20:20:06.601Z,13.15
2023-04-14T20:22:34.618Z,13.13
2023-04-14T20:25:02.574Z,13.13
2023-04-14T20:27:31.714Z,13.10
2023-04-14T20:29:59.726Z,13.09
2023-04-14T20:32:27.651Z,13.07
2023-04-14T20:34:57.097Z,13.06
2023-04-14T20:37:25.113Z,13.06
2023-04-14T20:39:53.349Z,13.00
2023-04-14T20:42:21.296Z,13.02
2023-04-14T20:44:49.248Z,13.00
2023-04-14T20:47:17.417Z,12.98
2023-04-14T20:49:45.366Z,12.98
2023-04-14T20:52:14.749Z,12.92
2023-04-14T20:54:42.599Z,12.95
2023-04-14T20:57:10.762Z,12.91
2023-04-14T20:59:38.970Z,12.93
2023-04-14T21:02:07.032Z,12.93
2023-04-14T21:04:36.347Z,12.92
2023-04-14T21:07:04.718Z,12.90
2023-04-14T21:09:34.001Z,12.90
2023-04-14T21:12:15.587Z,12.89
2023-04-14T21:15:30.763Z,12.86
2023-04-14T21:17:32.363Z,12.81
2023-04-14T21:20:00.319Z,12.83
2023-04-14T21:22:28.219Z,12.79
2023-04-14T21:24:57.561Z,12.78
2023-04-14T21:27:25.463Z,12.75
2023-04-14T21:29:53.457Z,12.75
2023-04-14T21:32:21.883Z,12.76
2023-04-14T21:34:49.768Z,12.75
2023-04-14T21:37:18.754Z,12.69
2023-04-14T21:39:46.631Z,12.70
2023-04-14T21:42:15.886Z,12.69
2023-04-14T21:44:43.868Z,12.69
2023-04-14T21:47:11.804Z,12.68
2023-04-14T21:49:39.805Z,12.66
2023-04-14T21:52:08.709Z,12.67
2023-04-14T21:54:38.823Z,12.67
2023-04-14T21:57:06.920Z,12.68
2023-04-14T21:59:36.599Z,12.67
2023-04-14T22:02:05.229Z,12.66
2023-04-14T22:04:36.857Z,12.63
2023-04-14T22:07:05.417Z,12.62
2023-04-14T22:09:34.406Z,12.61
2023-04-14T22:12:02.285Z,12.60
2023-04-14T22:14:31.121Z,12.57
2023-04-14T22:17:01.034Z,12.60
2023-04-14T22:19:29.987Z,12.58
2023-04-14T22:21:57.899Z,12.57
2023-04-14T22:24:25.748Z,12.56
2023-04-14T22:26:53.898Z,12.55
2023-04-14T22:29:21.788Z,12.53
2023-04-14T22:31:49.676Z,12.51
2023-04-14T22:34:18.978Z,12.51
2023-04-14T22:36:47.105Z,12.48
2023-04-14T22:39:14.967Z,12.48
2023-04-14T22:41:43.211Z,12.48
2023-04-14T22:44:11.105Z,12.46
2023-04-14T22:46:39.100Z,12.45
2023-04-14T22:49:07.335Z,12.44
2023-04-14T22:51:36.707Z,12.43
2023-04-14T22:54:04.683Z,12.35
2023-04-14T22:56:32.575Z,12.40
2023-04-14T22:59:00.691Z,12.36
2023-04-14T23:01:29.692Z,12.39
2023-04-14T23:03:57.664Z,12.38
2023-04-14T23:06:25.826Z,12.38
2023-04-14T23:08:55.072Z,12.38
2023-04-14T23:11:22.977Z,12.38
2023-04-14T23:13:50.977Z,12.38
2023-04-14T23:16:20.003Z,12.37
2023-04-14T23:18:49.622Z,12.36
2023-04-14T23:21:17.842Z,12.37
2023-04-14T23:23:46.066Z,12.37
2023-04-14T23:26:15.548Z,12.36
2023-04-14T23:28:43.468Z,12.36
2023-04-14T23:31:11.752Z,12.37
2023-04-14T23:33:39.678Z,12.37
2023-04-14T23:36:08.299Z,12.37
2023-04-14T23:38:36.542Z,12.34
2023-04-14T23:41:04.924Z,12.32
2023-04-14T23:43:34.563Z,12.27
2023-04-14T23:46:02.492Z,12.29
2023-04-14T23:48:30.409Z,12.26
2023-04-14T23:51:01.544Z,12.23
2023-04-14T23:53:44.901Z,12.20
2023-04-14T23:56:12.772Z,12.13
2023-04-14T23:58:42.458Z,12.16
